KBKT/BKT METAR and TAF weather

Enter ICAO airport designator
Station Type Date Time Source
KBKT METAR 2021/08/05 04:56 UTC NOAA

KBKT 050456Z AUTO 35006KT 10SM SCT150 17/17 A3009 RMK AO2 SLP190 T01700167 402690165 $


Station Type Date Time Source
KBKT Decoded METAR 2021/08/05 04:56 UTC NOAA

Ft. Pickett / Blackstone, VA, United States (KBKT) 37-05N 077-57W
Aug 05, 2021 - 12:56 AM EDT / 2021.08.05 0456 UTC
Wind: from the N (350 degrees) at 7 MPH (6 KT):0
Visibility: 10 mile(s):0
Sky conditions: partly cloudy
Temperature: 62.6 F (17.0 C)
Dew Point: 62.1 F (16.7 C)
Relative Humidity: 98%
Pressure (altimeter): 30.09 in. Hg (1018 hPa)
ob: KBKT 050456Z AUTO 35006KT 10SM SCT150 17/17 A3009 RMK AO2 SLP190 T01700167 402690165
cycle: 5

Station Type Date Time Source
KBKT TAF UTC NOAA

Error!

Example: see airport list